Pagrindinis puslapis
METAR-TAF:

METAR-TAF

Oro uostai :

Perudža, Italija

platuma: 43-05N, ilguma: 012-30E, Aukštis: 208 m

Dabartinis oras

Ataskaita buvo paskelbta 46 minutes, ne 17:50 UTC
Vėjas 5 kt iš Šiaurės Rytų, svyruoja nuo Šiaurės ir Rytų/Šiaurės Rytų
Temperatūra 14°C
Drėgmė 36%
Slėgis 1020 hPa
Matomumas 10 km arba daugiau
nėra debesų žemiau 1500 m ir nėra kamuolinių lietaus debesų

METAR: LIRZ 051750Z 04005KT 360V070 CAVOK 14/M01 Q1020

Laikas: 20:36 (18:36 UTC)

Prognozė

Ataskaita buvo paskelbta 1 valandą ir 36 minutes, ne 17:00 UTC
Prognozė galioja nuo 05 metu 18 UTC su 06 metu 18 UTC
Vėjas 12 kt iš Šiaurės Rytų
Matomumas 10 km arba daugiau
nėra debesų žemiau 1500 m ir nėra kamuolinių lietaus debesų

TAF: LIRZ 051700Z 0518/0618 04012KT CAVOK

Orai ataskaitas ir orų prognozės (METAR, TAF).

turimą stotys yra geltonos ir raudonos taškus žemėlapyje.

Perkelti pele per norėdami pamatyti stoties vardą.

Tada spustelėkite, norėdami matyti oro stebėjimo ir prognozės.

Norėdami pakeisti žemėlapį: spustelėkite ant žalios mygtukų su juodo kryžiaus žemyn,; žalią mygtuką su brūkšneliu, jei norite nutolinti; arba žalių rodyklių gretimoms žemėlapius.


METAR-TAF: